M I D A S
Marine Information and Data Acquisition System
Tripno 1410 of the Zeeleeuw from 2007-11-08 08:43:16 to 2007-11-08 16:57:53
Back to CruiseResearch ActivitiesStationsMapUnderway DataData graphs

EquipmentUnitsComment
TimeDGPSUTC
LatitudeDGPSDM.mWGS84
LongitudeDGPSDM.mWGS84
HeadingGyrodeg 
SOGDGPSknotsSpeed over ground
COGDGPSdegCourse over ground
DepthEcho soundermeters200 kHz
Missing or incorrect values are displayed as -999
Navigation data collected by the RV Zeeleeuw from 2007-11-08 08:44:22 to 2007-11-08 17:07:23
Time Latitude Longitude Heading SOG COG Depth
2007-11-08 08:45:27 51°13.676 2°55.883 100.4 2.6 283 -999
2007-11-08 08:46:27 51°13.679 2°55.821 83.2 2.3 266 -999
2007-11-08 08:47:27 51°13.675 2°55.775 75.9 0.8 266 9.7
2007-11-08 08:48:27 51°13.679 2°55.777 47.9 0.1 246 10.5
2007-11-08 08:49:27 51°13.677 2°55.769 26.8 0.8 11 4.6
2007-11-08 08:50:28 51°13.722 2°55.741 332.5 5.5 328 -999
2007-11-08 08:51:27 51°13.826 2°55.65 334.8 7.9 332 10.7
2007-11-08 08:52:27 51°13.948 2°55.56 340.2 8.3 338 -999
2007-11-08 08:53:27 51°14.074 2°55.474 339.8 8.3 336 -999
2007-11-08 08:54:27 51°14.208 2°55.35 329.3 10.2 324 -999
2007-11-08 08:55:26 51°14.331 2°55.136 306.8 11.9 302 11.3
2007-11-08 08:56:26 51°14.422 2°54.851 296.9 12.3 292 11.3
2007-11-08 08:57:25 51°14.502 2°54.556 298.4 12.5 295 11.1
2007-11-08 08:58:26 51°14.584 2°54.25 298.3 12.4 294 -999
2007-11-08 08:59:28 51°14.666 2°53.938 297.2 12.4 292 -999
2007-11-08 09:00:27 51°14.762 2°53.657 306.2 12.2 301 10.7
2007-11-08 09:01:26 51°14.864 2°53.385 305.6 12.2 300 11.1
2007-11-08 09:02:24 51°14.96 2°53.114 304.9 12.2 299 11.2
2007-11-08 09:03:24 51°15.059 2°52.831 305.2 12.2 298 11.6
2007-11-08 09:04:24 51°15.158 2°52.547 306.4 12.2 301 11.5
2007-11-08 09:05:24 51°15.258 2°52.266 305.4 12.3 300 12.2
2007-11-08 09:06:24 51°15.36 2°51.987 305.7 12.1 300 12.7
2007-11-08 09:07:24 51°15.458 2°51.706 305.5 12 301 13.1
2007-11-08 09:08:24 51°15.559 2°51.429 305.1 12 300 13.3
2007-11-08 09:09:24 51°15.662 2°51.154 305.8 12 301 13.9
2007-11-08 09:10:24 51°15.762 2°50.88 304.8 11.9 301 13.8
2007-11-08 09:11:24 51°15.864 2°50.608 305.4 11.9 301 14
2007-11-08 09:12:24 51°15.966 2°50.338 305.7 11.8 301 12
2007-11-08 09:13:24 51°16.066 2°50.071 305.4 11.8 300 11.6
2007-11-08 09:14:24 51°16.121 2°49.843 280.1 6.2 272 12.1
2007-11-08 09:15:24 51°16.111 2°49.727 268.8 3.4 260 12.4
2007-11-08 09:16:24 51°16.103 2°49.641 274.3 3.4 263 12.3
2007-11-08 09:17:24 51°16.097 2°49.532 274.9 4.7 264 12.8
2007-11-08 09:18:24 51°16.09 2°49.407 273.7 5.1 263 12.9
2007-11-08 09:19:24 51°16.084 2°49.267 274.1 5.2 268 13.5
2007-11-08 09:20:23 51°16.076 2°49.143 272.9 4.5 269 13.6
2007-11-08 09:21:24 51°16.068 2°49.025 273 4.3 265 14
2007-11-08 09:22:24 51°16.062 2°48.907 273.8 4.4 272 14.5
2007-11-08 09:23:24 51°16.058 2°48.787 273.6 4.6 269 15.2
2007-11-08 09:24:24 51°16.051 2°48.673 273.5 4.4 266 15.6
2007-11-08 09:25:24 51°16.047 2°48.557 273.5 4.4 269 16
2007-11-08 09:26:24 51°16.043 2°48.442 274.7 4.6 269 16.4
2007-11-08 09:27:24 51°16.037 2°48.326 272.4 4.4 269 16.5
2007-11-08 09:28:24 51°16.034 2°48.208 273.9 4.5 270 16.8
2007-11-08 09:29:24 51°16.033 2°48.087 273.9 4.4 263 17.2
2007-11-08 09:30:24 51°16.022 2°47.973 264.3 4.5 259 17.1
2007-11-08 09:31:24 51°16.008 2°47.859 261.8 4.2 257 17.1
2007-11-08 09:32:24 51°15.991 2°47.745 262.8 4.6 256 17.6
2007-11-08 09:33:24 51°15.97 2°47.628 257.5 4.6 244 17.8
2007-11-08 09:34:24 51°15.947 2°47.514 259.7 4.4 254 17.7
2007-11-08 09:35:24 51°15.923 2°47.401 257.1 4.6 253 18
2007-11-08 09:36:24 51°15.897 2°47.285 254.4 4.7 246 18.3
2007-11-08 09:37:24 51°15.861 2°47.178 247.3 4.6 235 18.4
2007-11-08 09:38:24 51°15.823 2°47.08 247.8 4.4 240 18.6
2007-11-08 09:39:24 51°15.788 2°46.977 249.1 4.5 243 18.7
2007-11-08 09:40:24 51°15.751 2°46.863 248.6 5.2 240 18.3
2007-11-08 09:41:24 51°15.713 2°46.746 248.1 4.6 238 18.2
2007-11-08 09:42:24 51°15.678 2°46.639 249.2 4.7 245 18.4
2007-11-08 09:43:24 51°15.641 2°46.52 249.6 6 245 18.6
2007-11-08 09:44:24 51°15.604 2°46.396 249 4.7 241 18.5
2007-11-08 09:45:24 51°15.575 2°46.291 251.3 4.2 252 18.5
2007-11-08 09:46:24 51°15.545 2°46.184 249.6 4.5 244 18.9
2007-11-08 09:47:24 51°15.513 2°46.077 249 4.5 248 18.7
2007-11-08 09:48:24 51°15.481 2°45.967 248.8 4.2 241 18.9
2007-11-08 09:49:24 51°15.451 2°45.864 249.6 4.3 241 18.9
2007-11-08 09:50:24 51°15.42 2°45.759 248.7 4.5 244 19
2007-11-08 09:51:24 51°15.389 2°45.651 248.9 4.5 245 19
2007-11-08 09:52:23 51°15.358 2°45.547 249.4 4.2 245 19.1
2007-11-08 09:53:24 51°15.327 2°45.442 249.3 4.5 243 19.1
2007-11-08 09:54:24 51°15.296 2°45.339 249.7 4.4 248 19.3
2007-11-08 09:55:24 51°15.268 2°45.233 250 4.5 250 19.5
2007-11-08 09:56:24 51°15.237 2°45.129 249.9 4.4 247 19.7
2007-11-08 09:57:24 51°15.206 2°45.012 250.1 5 250 19.7
2007-11-08 09:58:24 51°15.171 2°44.897 248.9 4.7 244 19.8
2007-11-08 09:59:24 51°15.136 2°44.787 248.4 4.4 241 19.6
2007-11-08 10:00:24 51°15.105 2°44.68 249.6 4.5 247 20
2007-11-08 10:01:24 51°15.074 2°44.568 249.9 4.7 244 20
2007-11-08 10:02:24 51°15.042 2°44.453 248.2 4.6 250 20
2007-11-08 10:03:24 51°15.012 2°44.34 250.8 4.7 248 20.3
2007-11-08 10:04:24 51°14.981 2°44.226 247.9 4.8 251 20.1
2007-11-08 10:05:24 51°14.949 2°44.113 249.6 4.8 245 20.5
2007-11-08 10:06:24 51°14.918 2°44.001 249.6 4.5 244 20.3
2007-11-08 10:07:24 51°14.888 2°43.89 249.8 4.7 248 20.4
2007-11-08 10:08:24 51°14.858 2°43.777 249.3 4.5 242 20.3
2007-11-08 10:09:24 51°14.829 2°43.663 249.6 4.6 250 20.7
2007-11-08 10:10:24 51°14.8 2°43.552 248.7 4.6 249 20.7
2007-11-08 10:11:24 51°14.771 2°43.441 248.5 4.2 246 20.2
2007-11-08 10:12:24 51°14.744 2°43.334 249.6 4.5 246 20.8
2007-11-08 10:13:24 51°14.716 2°43.231 249.5 4.4 243 20.7
2007-11-08 10:14:24 51°14.69 2°43.122 250.9 4.5 254 20.7
2007-11-08 10:15:24 51°14.664 2°43.011 250.4 4.3 251 20.5
2007-11-08 10:16:24 51°14.647 2°42.898 260.5 4.4 263 20.4
2007-11-08 10:17:24 51°14.638 2°42.786 258.5 4.1 259 20.2
2007-11-08 10:18:24 51°14.628 2°42.679 261.2 4.1 266 20.1
2007-11-08 10:19:24 51°14.62 2°42.567 260.2 4.3 262 19.8
2007-11-08 10:20:24 51°14.61 2°42.458 258.3 4.2 264 18.9
2007-11-08 10:21:24 51°14.601 2°42.351 259.7 4 265 18.6
2007-11-08 10:22:24 51°14.593 2°42.241 259.1 4.3 263 18
2007-11-08 10:23:24 51°14.583 2°42.126 260 4.7 258 17.6
2007-11-08 10:24:24 51°14.57 2°42 259.3 4.8 259 16.5
2007-11-08 10:25:24 51°14.557 2°41.87 258.6 5 260 16.6
2007-11-08 10:26:24 51°14.543 2°41.742 257.8 4.7 260 16.6
2007-11-08 10:27:24 51°14.528 2°41.615 259.5 5 262 16.6
2007-11-08 10:28:24 51°14.513 2°41.488 259.8 5 260 17
2007-11-08 10:29:24 51°14.499 2°41.359 259 4.8 261 16.9
2007-11-08 10:30:24 51°14.486 2°41.232 259.3 4.9 256 16.1
2007-11-08 10:31:24 51°14.47 2°41.104 259.4 4.9 256 16.7
2007-11-08 10:32:24 51°14.454 2°40.978 259.2 4.9 256 16.6
2007-11-08 10:33:24 51°14.439 2°40.85 259.8 4.9 260 16.4
2007-11-08 10:34:24 51°14.421 2°40.719 259.1 5 256 16
2007-11-08 10:35:24 51°14.412 2°40.587 266.7 5.1 269 16.3
2007-11-08 10:36:24 51°14.407 2°40.452 265.8 5.1 268 16.5
2007-11-08 10:37:24 51°14.401 2°40.319 265.8 5 266 16.2
2007-11-08 10:38:24 51°14.395 2°40.187 264.8 4.9 264 15.4
2007-11-08 10:39:24 51°14.389 2°40.058 265.2 4.9 260 15.8
2007-11-08 10:40:24 51°14.383 2°39.929 265.4 4.9 265 16
2007-11-08 10:41:24 51°14.377 2°39.797 264.9 5 265 15.9
2007-11-08 10:42:24 51°14.372 2°39.663 265.4 5.1 269 15.8
2007-11-08 10:43:24 51°14.368 2°39.532 265.3 5 271 16
2007-11-08 10:44:24 51°14.363 2°39.404 264.9 4.7 267 16.1
2007-11-08 10:45:24 51°14.358 2°39.276 264.7 4.9 268 15.5
2007-11-08 10:46:24 51°14.354 2°39.148 265.1 4.9 264 16.2
2007-11-08 10:47:24 51°14.351 2°39.02 264.9 4.6 265 18.3
2007-11-08 10:48:24 51°14.346 2°38.894 265.2 4.8 265 19.7
2007-11-08 10:49:24 51°14.345 2°38.765 266.8 4.9 270 20.1
2007-11-08 10:50:24 51°14.341 2°38.635 264.8 4.9 267 20.4
2007-11-08 10:51:24 51°14.339 2°38.507 266.2 4.9 265 20.7
2007-11-08 10:52:24 51°14.337 2°38.376 265.7 5 274 21.1
2007-11-08 10:53:24 51°14.331 2°38.249 255.4 4.6 253 20.9
2007-11-08 10:54:24 51°14.291 2°38.145 242.4 4.5 235 21.1
2007-11-08 10:55:24 51°14.251 2°38.041 248.4 4.6 242 21.8
2007-11-08 10:56:24 51°14.219 2°37.93 249.6 4.6 244 21.9
2007-11-08 10:57:24 51°14.188 2°37.818 249.8 4.7 244 21.9
2007-11-08 10:58:24 51°14.156 2°37.71 249.8 4.5 244 22.4
2007-11-08 10:59:24 51°14.125 2°37.599 250.7 4.6 245 22.5
2007-11-08 11:00:24 51°14.093 2°37.484 250.4 4.8 247 22.2
2007-11-08 11:01:24 51°14.061 2°37.367 250.1 4.8 248 22.2
2007-11-08 11:02:24 51°14.027 2°37.248 251.1 4.9 247 21.7
2007-11-08 11:03:24 51°13.992 2°37.128 249.8 5 243 22.1
2007-11-08 11:04:24 51°13.961 2°37.011 251.3 4.8 248 22.3
2007-11-08 11:05:24 51°13.929 2°36.897 249.1 4.7 244 22.1
2007-11-08 11:06:24 51°13.898 2°36.786 250.4 4.7 248 22.4
2007-11-08 11:07:24 51°13.867 2°36.675 250.4 4.6 246 22.4
2007-11-08 11:08:24 51°13.837 2°36.562 250.1 4.6 246 22.1
2007-11-08 11:09:24 51°13.806 2°36.451 250.3 4.7 248 22.3
2007-11-08 11:10:24 51°13.774 2°36.338 250.7 4.7 249 21.9
2007-11-08 11:11:24 51°13.742 2°36.223 249.8 4.8 240 20.9
2007-11-08 11:12:24 51°13.711 2°36.108 250.7 4.7 245 21.7
2007-11-08 11:13:24 51°13.68 2°35.991 250.7 4.8 244 21.3
2007-11-08 11:14:24 51°13.649 2°35.874 249.4 4.7 245 20.1
2007-11-08 11:15:24 51°13.614 2°35.759 247 4.9 247 21.4
2007-11-08 11:16:24 51°13.578 2°35.645 247.9 4.8 241 18.2
2007-11-08 11:17:24 51°13.542 2°35.533 246.7 4.7 242 19.7
2007-11-08 11:18:24 51°13.508 2°35.422 246.8 4.6 245 19.8
2007-11-08 11:19:24 51°13.473 2°35.31 247.2 4.7 241 19.6
2007-11-08 11:20:24 51°13.438 2°35.2 246.9 4.7 247 19.1
2007-11-08 11:21:24 51°13.404 2°35.088 248 4.7 242 19.1
2007-11-08 11:22:24 51°13.369 2°34.973 246.7 4.9 245 19.2
2007-11-08 11:23:24 51°13.333 2°34.856 247.4 4.9 245 19.1
2007-11-08 11:24:24 51°13.301 2°34.738 247.5 4.9 249 18.8
2007-11-08 11:25:24 51°13.265 2°34.621 246.7 4.9 245 18.5
2007-11-08 11:26:24 51°13.233 2°34.507 247.5 4.8 242 18.3
2007-11-08 11:27:24 51°13.2 2°34.392 247.8 4.8 247 18.1
2007-11-08 11:28:24 51°13.168 2°34.275 247.2 4.9 251 17.9
2007-11-08 11:29:24 51°13.135 2°34.16 247.5 4.8 248 17.4
2007-11-08 11:30:24 51°13.105 2°34.044 250.8 4.8 255 17
2007-11-08 11:31:24 51°13.117 2°33.917 285.4 5.1 298 16.2
2007-11-08 11:32:24 51°13.172 2°33.824 297.6 4.4 319 17.6
2007-11-08 11:33:24 51°13.228 2°33.745 296.1 4.7 318 19.9
2007-11-08 11:34:24 51°13.282 2°33.66 293.2 4.7 316 23.2
2007-11-08 11:35:24 51°13.335 2°33.574 292.7 4.8 315 25.5
2007-11-08 11:36:24 51°13.407 2°33.491 312.7 5.6 334 26.1
2007-11-08 11:37:24 51°13.496 2°33.461 332 5.2 353 26.1
2007-11-08 11:38:24 51°13.584 2°33.466 346.1 5.3 9 25.5
2007-11-08 11:39:24 51°13.672 2°33.486 346.7 5.2 9 25.8
2007-11-08 11:40:24 51°13.761 2°33.504 349.4 5.5 8 24.9
2007-11-08 11:41:24 51°13.849 2°33.523 351.2 5.3 11 25.4
2007-11-08 11:42:24 51°13.936 2°33.545 345.2 5.2 5 26.4
2007-11-08 11:43:24 51°14.024 2°33.557 344.9 5.4 5 26.7
2007-11-08 11:44:24 51°14.112 2°33.574 346.5 5.2 6 27.3
2007-11-08 11:45:24 51°14.2 2°33.593 347.8 5.4 8 27.1
2007-11-08 11:46:24 51°14.286 2°33.615 350.5 5.2 13 26.9
2007-11-08 11:47:24 51°14.371 2°33.657 8 5.3 22 27.6
2007-11-08 11:48:24 51°14.447 2°33.717 11.7 5 27 28.3
2007-11-08 11:49:24 51°14.518 2°33.775 10.5 4.9 29 28.4
2007-11-08 11:50:24 51°14.587 2°33.833 11.6 4.4 27 28.6
2007-11-08 11:51:24 51°14.656 2°33.888 12.7 4.8 26 28.1
2007-11-08 11:52:24 51°14.728 2°33.949 13.1 4.9 26 28.6
2007-11-08 11:53:24 51°14.803 2°34.009 13.8 5.2 26 28.4
2007-11-08 11:54:24 51°14.88 2°34.074 13.4 5.3 26 28.5
2007-11-08 11:55:24 51°14.958 2°34.134 13.8 5.1 26 28.6
2007-11-08 11:56:24 51°15.032 2°34.196 15.6 5.1 27 28.4
2007-11-08 11:57:24 51°15.104 2°34.253 16.1 4.8 28 28.6
2007-11-08 11:58:24 51°15.176 2°34.321 23 5.3 33 28.9
2007-11-08 11:59:24 51°15.25 2°34.394 19.7 5.3 31 28.6
2007-11-08 12:00:24 51°15.323 2°34.464 20.6 4.9 32 28.5
2007-11-08 12:01:24 51°15.391 2°34.53 17.7 4.7 30 28.6
2007-11-08 12:02:24 51°15.459 2°34.59 16.9 4.6 32 28.7
2007-11-08 12:03:24 51°15.525 2°34.655 19.4 4.7 32 29
2007-11-08 12:04:24 51°15.593 2°34.721 19.6 4.8 33 28.6
2007-11-08 12:05:24 51°15.659 2°34.788 20.9 4.7 33 28.9
2007-11-08 12:06:24 51°15.724 2°34.856 21.4 4.6 35 28.5
2007-11-08 12:07:24 51°15.789 2°34.923 20.6 4.6 33 28.5
2007-11-08 12:08:24 51°15.854 2°34.988 20.8 4.6 32 28.9
2007-11-08 12:09:24 51°15.92 2°35.059 24.7 4.8 37 28.2
2007-11-08 12:10:24 51°15.985 2°35.134 24.1 4.9 37 28.5
2007-11-08 12:11:24 51°16.052 2°35.207 22.4 4.8 35 28.7
2007-11-08 12:12:24 51°16.119 2°35.281 24.6 5 35 28.4
2007-11-08 12:13:24 51°16.182 2°35.355 27.3 4.8 34 28.7
2007-11-08 12:14:24 51°16.247 2°35.43 25.6 4.8 38 28.6
2007-11-08 12:15:24 51°16.311 2°35.506 27.8 4.9 38 28.6
2007-11-08 12:16:24 51°16.377 2°35.586 27 4.9 38 28.5
2007-11-08 12:17:24 51°16.441 2°35.666 28.6 4.9 39 28.7
2007-11-08 12:18:24 51°16.506 2°35.743 26.8 4.8 36 29.1
2007-11-08 12:19:24 51°16.571 2°35.82 27.6 4.9 36 29.2
2007-11-08 12:20:24 51°16.636 2°35.896 27 4.7 36 28.4
2007-11-08 12:21:24 51°16.7 2°35.972 28.2 4.8 38 28.5
2007-11-08 12:22:24 51°16.764 2°36.048 29.3 4.8 36 28.8
2007-11-08 12:23:24 51°16.829 2°36.121 25.7 4.8 34 29
2007-11-08 12:24:24 51°16.892 2°36.195 29.8 4.8 36 29.2
2007-11-08 12:25:24 51°16.956 2°36.272 34.6 4.8 38 28.7
2007-11-08 12:26:24 51°17.019 2°36.352 31.6 4.9 37 29.2
2007-11-08 12:27:24 51°17.083 2°36.431 30.4 4.8 38 28.4
2007-11-08 12:28:24 51°17.148 2°36.51 30.2 5 36 29
2007-11-08 12:29:24 51°17.215 2°36.59 30.2 5 35 28.9
2007-11-08 12:30:24 51°17.282 2°36.67 31.7 5.1 37 28.5
2007-11-08 12:31:24 51°17.349 2°36.751 30.1 4.9 33 28.5
2007-11-08 12:32:24 51°17.414 2°36.831 32.9 4.9 40 28.6
2007-11-08 12:33:24 51°17.469 2°36.929 55.9 5 59 28.7
2007-11-08 12:34:24 51°17.502 2°37.046 89.7 4.8 77 27.7
2007-11-08 12:35:24 51°17.498 2°37.169 129.7 4.8 106 29.4
2007-11-08 12:36:24 51°17.448 2°37.259 173.4 4.8 148 29.3
2007-11-08 12:37:24 51°17.372 2°37.251 217 4.8 206 29.1
2007-11-08 12:38:24 51°17.315 2°37.161 228.5 5.1 223 29
2007-11-08 12:39:24 51°17.252 2°37.056 234 5.4 227 29
2007-11-08 12:40:24 51°17.199 2°36.957 236.3 4.6 232 28.9
2007-11-08 12:41:24 51°17.146 2°36.865 234.5 4.7 228 28.7
2007-11-08 12:42:24 51°17.091 2°36.773 231.9 5.1 229 29.2
2007-11-08 12:43:24 51°17.031 2°36.683 230.4 4.7 225 29.2
2007-11-08 12:44:24 51°16.974 2°36.602 230.1 4.7 223 28.9
2007-11-08 12:45:24 51°16.914 2°36.511 231 5 223 29.7
2007-11-08 12:46:24 51°16.855 2°36.419 230.4 4.8 228 28.9
2007-11-08 12:47:24 51°16.798 2°36.331 230.9 4.7 225 28.6
2007-11-08 12:48:24 51°16.741 2°36.249 230.7 4.6 222 28.5
2007-11-08 12:49:24 51°16.683 2°36.164 230.2 4.6 226 28.2
2007-11-08 12:50:24 51°16.627 2°36.077 230.8 4.7 226 28
2007-11-08 12:51:24 51°16.569 2°35.992 229.1 4.7 224 28.5
2007-11-08 12:52:24 51°16.512 2°35.907 230 4.7 223 29
2007-11-08 12:53:24 51°16.456 2°35.827 225.5 4.5 219 28.6
2007-11-08 12:54:24 51°16.39 2°35.757 223.2 4.7 215 27.9
2007-11-08 12:55:24 51°16.326 2°35.689 223.1 4.4 215 28.2
2007-11-08 12:56:24 51°16.261 2°35.617 224.7 4.5 210 -999
2007-11-08 12:57:24 51°16.2 2°35.548 225.6 4.7 217 28.1
2007-11-08 12:58:24 51°16.135 2°35.481 221.3 4.6 209 28.7
2007-11-08 12:59:24 51°16.073 2°35.413 224.9 4.6 218 28.2
2007-11-08 13:00:24 51°16.009 2°35.342 225.6 5 218 28.1
2007-11-08 13:01:24 51°15.942 2°35.257 224.3 5.1 219 28
2007-11-08 13:02:24 51°15.875 2°35.173 223.8 5 213 27.8
2007-11-08 13:03:24 51°15.807 2°35.091 224 5 218 28.2
2007-11-08 13:04:24 51°15.74 2°35.01 224.4 4.9 213 28.3
2007-11-08 13:05:24 51°15.672 2°34.938 219.5 5 213 28.6
2007-11-08 13:06:24 51°15.602 2°34.872 219.1 4.8 207 28.3
2007-11-08 13:07:24 51°15.534 2°34.809 219.3 4.9 209 31
2007-11-08 13:08:24 51°15.466 2°34.743 218.9 4.9 210 28.3
2007-11-08 13:09:24 51°15.399 2°34.686 217.5 4.2 208 28.3
2007-11-08 13:10:24 51°15.335 2°34.63 219.3 4.6 211 28.1
2007-11-08 13:11:24 51°15.268 2°34.572 218.6 4.7 211 27.8
2007-11-08 13:12:24 51°15.199 2°34.513 214.8 4.6 206 27.9
2007-11-08 13:13:24 51°15.128 2°34.459 215.5 4.6 206 28
2007-11-08 13:14:24 51°15.064 2°34.397 217.9 4.6 210 28.3
2007-11-08 13:15:24 51°14.996 2°34.336 215.5 4.8 211 27.8
2007-11-08 13:16:24 51°14.926 2°34.279 216.2 4.6 210 27.8
2007-11-08 13:17:24 51°14.856 2°34.216 216.8 5 211 27.7
2007-11-08 13:18:24 51°14.782 2°34.16 207.2 4.8 196 27.4
2007-11-08 13:19:24 51°14.701 2°34.134 202.7 4.8 194 27.3
2007-11-08 13:20:24 51°14.619 2°34.105 202.6 5 193 27
2007-11-08 13:21:24 51°14.537 2°34.078 202.5 5 194 26.8
2007-11-08 13:22:24 51°14.459 2°34.053 202.7 4.8 193 26
2007-11-08 13:23:24 51°14.382 2°34.028 203 4.9 192 25.9
2007-11-08 13:24:24 51°14.301 2°34.001 203.9 5 195 25.9
2007-11-08 13:25:24 51°14.222 2°33.974 203.3 5 193 25.3
2007-11-08 13:26:24 51°14.144 2°33.95 203.9 4.8 189 24.9
2007-11-08 13:27:24 51°14.066 2°33.925 202.6 4.7 191 24.2
2007-11-08 13:28:24 51°13.991 2°33.901 203.3 4.7 191 24.1
2007-11-08 13:29:24 51°13.914 2°33.874 202.1 4.8 192 22.8
2007-11-08 13:30:24 51°13.837 2°33.849 203.7 4.7 189 24
2007-11-08 13:31:24 51°13.76 2°33.823 203.2 4.7 193 24.1
2007-11-08 13:32:24 51°13.683 2°33.8 203.8 4.5 195 24.1
2007-11-08 13:33:24 51°13.609 2°33.768 203.9 4.8 192 24.9
2007-11-08 13:34:24 51°13.533 2°33.736 203.4 4.7 194 24.5
2007-11-08 13:35:24 51°13.457 2°33.704 203.5 4.7 195 24.6
2007-11-08 13:36:24 51°13.377 2°33.671 199 5 189 22.7
2007-11-08 13:37:24 51°13.293 2°33.667 190.3 5.1 179 22
2007-11-08 13:38:24 51°13.205 2°33.668 190.5 5.4 179 19.7
2007-11-08 13:39:24 51°13.118 2°33.663 192.7 5.3 182 17.1
2007-11-08 13:40:24 51°13.03 2°33.657 191.2 5.4 181 16.4
2007-11-08 13:41:24 51°12.939 2°33.654 190.9 5.4 180 15.6
2007-11-08 13:42:24 51°12.851 2°33.654 189.2 5.1 178 -999
2007-11-08 13:43:24 51°12.765 2°33.664 182.9 5.3 171 16.6
2007-11-08 13:44:24 51°12.676 2°33.703 169.7 5.9 156 18
2007-11-08 13:45:24 51°12.594 2°33.805 143.2 6.3 127 18.1
2007-11-08 13:46:24 51°12.558 2°33.944 113.6 5.5 102 16.2
2007-11-08 13:47:24 51°12.562 2°34.087 91.1 5.5 80 15.2
2007-11-08 13:48:24 51°12.589 2°34.225 73.3 5.4 65 15.1
2007-11-08 13:49:24 51°12.639 2°34.343 52.6 5.2 51 14.6
2007-11-08 13:50:24 51°12.698 2°34.44 42.9 5 43 14.4
2007-11-08 13:51:24 51°12.76 2°34.528 38.9 5 40 14.8
2007-11-08 13:52:24 51°12.823 2°34.614 40 4.9 42 16.3
2007-11-08 13:53:24 51°12.88 2°34.704 45.7 4.7 47 16.8
2007-11-08 13:54:24 51°12.935 2°34.798 47.7 4.8 48 18
2007-11-08 13:55:24 51°12.991 2°34.89 45.6 4.8 45 17.8
2007-11-08 13:56:24 51°13.048 2°34.985 45.7 4.9 46 18.1
2007-11-08 13:57:24 51°13.105 2°35.081 46.7 4.9 45 5
2007-11-08 13:58:24 51°13.16 2°35.174 48.7 4.8 49 18.2
2007-11-08 13:59:24 51°13.206 2°35.278 62.7 4.8 58 18.4
2007-11-08 14:00:24 51°13.244 2°35.39 65.7 4.8 64 18.4
2007-11-08 14:01:24 51°13.282 2°35.501 62.7 4.8 61 18.4
2007-11-08 14:02:24 51°13.326 2°35.611 58 4.9 58 18.5
2007-11-08 14:03:24 51°13.374 2°35.717 52.6 4.8 54 18.4
2007-11-08 14:04:24 51°13.422 2°35.821 58.2 4.8 56 18.8
2007-11-08 14:05:24 51°13.459 2°35.932 68.2 4.7 67 18.7
2007-11-08 14:06:24 51°13.492 2°36.045 67.4 4.6 65 18
2007-11-08 14:07:24 51°13.532 2°36.151 58.9 4.7 57 18.6
2007-11-08 14:08:24 51°13.576 2°36.255 58 4.9 55 19.4
2007-11-08 14:09:24 51°13.621 2°36.363 60.9 4.9 57 20.2
2007-11-08 14:10:24 51°13.661 2°36.472 67 4.7 61 19.9
2007-11-08 14:11:24 51°13.698 2°36.584 69.3 4.8 63 20.7
2007-11-08 14:12:24 51°13.731 2°36.696 70.7 4.6 66 20.5
2007-11-08 14:13:24 51°13.761 2°36.804 70.4 4.6 64 20.7
2007-11-08 14:14:24 51°13.797 2°36.912 65.1 4.6 61 21.8
2007-11-08 14:15:24 51°13.836 2°37.021 63.8 4.7 59 21.5
2007-11-08 14:16:24 51°13.875 2°37.129 63.6 4.6 60 21.5
2007-11-08 14:17:24 51°13.913 2°37.233 63.1 4.5 58 21.2
2007-11-08 14:18:24 51°13.949 2°37.337 66.5 4.5 61 21.5
2007-11-08 14:19:24 51°13.984 2°37.443 66.3 4.7 61 21.1
2007-11-08 14:20:24 51°14.02 2°37.552 66.7 4.7 60 20.6
2007-11-08 14:21:24 51°14.058 2°37.662 65.3 4.8 62 21
2007-11-08 14:22:24 51°14.098 2°37.773 64.4 4.7 61 20.4
2007-11-08 14:23:24 51°14.138 2°37.882 64.2 4.7 57 20
2007-11-08 14:24:24 51°14.174 2°37.99 73.5 4.6 67 19.9
2007-11-08 14:25:24 51°14.197 2°38.107 83.4 4.6 74 19.4
2007-11-08 14:26:24 51°14.218 2°38.224 84.6 4.8 73 19.2
2007-11-08 14:27:24 51°14.243 2°38.348 80.3 5 70 18.9
2007-11-08 14:28:24 51°14.269 2°38.476 79.5 5.1 73 18
2007-11-08 14:29:24 51°14.297 2°38.608 77 5.3 70 17.4
2007-11-08 14:30:24 51°14.328 2°38.737 76.9 5.2 72 17.8
2007-11-08 14:31:24 51°14.349 2°38.867 89.6 4.9 84 17.7
2007-11-08 14:32:24 51°14.352 2°38.996 106.6 4.8 96 16.4
2007-11-08 14:33:24 51°14.343 2°39.12 109.6 4.6 94 14.2
2007-11-08 14:34:24 51°14.337 2°39.243 106.4 4.8 92 13.5
2007-11-08 14:35:24 51°14.328 2°39.366 117.8 4.5 100 14
2007-11-08 14:36:24 51°14.299 2°39.474 139.3 4.8 124 13.4
2007-11-08 14:37:24 51°14.225 2°39.559 168.1 5.7 159 14
2007-11-08 14:38:24 51°14.137 2°39.565 202.5 5 198 14.4
2007-11-08 14:39:24 51°14.069 2°39.5 225.4 4.7 220 14.2
2007-11-08 14:40:24 51°14.01 2°39.419 226.9 4.2 216 14.1
2007-11-08 14:41:24 51°13.943 2°39.342 222.4 5.7 217 14.7
2007-11-08 14:42:24 51°13.87 2°39.261 222.5 5 213 14.9
2007-11-08 14:43:24 51°13.806 2°39.196 219.2 4.5 208 14.6
2007-11-08 14:44:24 51°13.74 2°39.134 220.5 4.8 214 14.5
2007-11-08 14:45:24 51°13.67 2°39.063 220.3 5 212 14.6
2007-11-08 14:46:24 51°13.599 2°38.996 219.7 4.9 211 14.4
2007-11-08 14:47:24 51°13.525 2°38.924 219.1 5.4 211 14
2007-11-08 14:48:24 51°13.45 2°38.862 215.8 4.6 209 13.6
2007-11-08 14:49:24 51°13.378 2°38.795 217.5 4.9 208 13.9
2007-11-08 14:50:24 51°13.304 2°38.726 216.4 4.9 208 13.7
2007-11-08 14:51:24 51°13.236 2°38.662 218.7 4.7 211 14.7
2007-11-08 14:52:24 51°13.164 2°38.596 219.3 4.9 210 14.9
2007-11-08 14:53:24 51°13.096 2°38.528 219.2 5.1 213 14.5
2007-11-08 14:54:24 51°13.024 2°38.461 216.9 5 211 13.6
2007-11-08 14:55:24 51°12.953 2°38.393 219.5 4.9 214 14
2007-11-08 14:56:24 51°12.88 2°38.324 217 5.2 211 13.7
2007-11-08 14:57:24 51°12.805 2°38.251 215.5 5.5 210 13.7
2007-11-08 14:58:24 51°12.727 2°38.191 212.9 5.1 205 13.4
2007-11-08 14:59:24 51°12.651 2°38.126 214 5.2 203 13.3
2007-11-08 15:00:24 51°12.568 2°38.081 202.9 5.4 194 13.2
2007-11-08 15:01:24 51°12.483 2°38.043 203.3 5.4 196 13.8
2007-11-08 15:02:24 51°12.399 2°38.006 203 5.2 197 13.2
2007-11-08 15:03:24 51°12.315 2°37.964 203.8 5.2 193 13.4
2007-11-08 15:04:24 51°12.231 2°37.928 202.9 5.4 192 13.7
2007-11-08 15:05:24 51°12.153 2°37.883 208.6 5.1 201 13.6
2007-11-08 15:06:24 51°12.074 2°37.833 209 4.9 199 13.8
2007-11-08 15:07:24 51°11.997 2°37.787 208.7 4.7 200 13.4
2007-11-08 15:08:24 51°11.921 2°37.739 209.8 5.3 201 14
2007-11-08 15:09:24 51°11.845 2°37.689 206.8 4.9 200 13.7
2007-11-08 15:10:24 51°11.766 2°37.631 210.5 5.4 208 13.9
2007-11-08 15:11:24 51°11.688 2°37.571 211.3 5.1 205 13.8
2007-11-08 15:12:24 51°11.611 2°37.511 210.9 5.1 207 13.9
2007-11-08 15:13:24 51°11.537 2°37.453 213.3 5 209 13.9
2007-11-08 15:14:24 51°11.467 2°37.388 217.5 4.9 213 13.7
2007-11-08 15:15:24 51°11.397 2°37.318 216.1 5 211 13.3
2007-11-08 15:16:24 51°11.326 2°37.247 217 5.1 213 13.4
2007-11-08 15:17:24 51°11.252 2°37.171 216.4 5.3 210 13.3
2007-11-08 15:18:24 51°11.177 2°37.098 216.8 5.3 213 13.1
2007-11-08 15:19:24 51°11.104 2°37.032 215.7 5 208 12.3
2007-11-08 15:20:24 51°11.024 2°36.983 197 5.5 192 12.2
2007-11-08 15:21:24 51°10.931 2°36.97 190.1 5.4 184 10.9
2007-11-08 15:22:24 51°10.844 2°36.962 190.6 5 183 10.7
2007-11-08 15:23:24 51°10.762 2°36.955 190.2 4.9 184 9.5
2007-11-08 15:24:24 51°10.658 2°36.933 192 6.9 190 9.2
2007-11-08 15:25:24 51°10.539 2°36.913 180.7 7.4 180 8.4
2007-11-08 15:26:24 51°10.417 2°36.973 155.6 7.8 151 13.9
2007-11-08 15:27:24 51°10.319 2°37.118 125.7 8.2 124 17.4
2007-11-08 15:28:24 51°10.285 2°37.29 100.3 5.8 95 17.6
2007-11-08 15:29:24 51°10.278 2°37.428 97.7 4.9 95 17.7
2007-11-08 15:30:24 51°10.269 2°37.55 102.7 4.5 100 17.8
2007-11-08 15:31:24 51°10.26 2°37.668 91.8 4.7 89 17.8
2007-11-08 15:32:24 51°10.291 2°37.791 54.5 5.2 54 17.6
2007-11-08 15:33:24 51°10.359 2°37.881 34.8 5.4 34 17.5
2007-11-08 15:34:24 51°10.43 2°37.972 46.6 5.6 46 17.8
2007-11-08 15:35:24 51°10.496 2°38.073 41.3 5.6 42 17.7
2007-11-08 15:36:24 51°10.555 2°38.184 54.4 5.6 54 17.5
2007-11-08 15:37:24 51°10.604 2°38.314 62.3 5.7 61 17.6
2007-11-08 15:38:24 51°10.652 2°38.438 55.3 5.4 55 17.5
2007-11-08 15:39:24 51°10.703 2°38.552 55.3 5.2 58 17.1
2007-11-08 15:40:24 51°10.752 2°38.665 56.6 5.2 55 17.2
2007-11-08 15:41:24 51°10.793 2°38.783 67.5 5 67 17.1
2007-11-08 15:42:24 51°10.823 2°38.907 69 5.1 69 16.9
2007-11-08 15:43:24 51°10.858 2°39.032 66.1 5.1 64 17
2007-11-08 15:44:24 51°10.896 2°39.155 64.2 5.2 63 16.9
2007-11-08 15:45:24 51°10.933 2°39.278 65 5.2 64 16.8
2007-11-08 15:46:24 51°10.97 2°39.399 65 5.1 65 16.7
2007-11-08 15:47:24 51°11.007 2°39.519 64.6 5 61 16.7
2007-11-08 15:48:24 51°11.045 2°39.636 64.4 5 62 16.6
2007-11-08 15:49:24 51°11.083 2°39.754 64 5 65 16.3
2007-11-08 15:50:24 51°11.114 2°39.874 70.8 4.9 68 16.2
2007-11-08 15:51:24 51°11.139 2°39.998 73.1 4.9 71 15.8
2007-11-08 15:52:24 51°11.17 2°40.121 67.4 5 64 15.4
2007-11-08 15:53:24 51°11.209 2°40.237 61.6 5 61 15.3
2007-11-08 15:54:24 51°11.252 2°40.348 58.7 4.9 56 15.1
2007-11-08 15:55:24 51°11.295 2°40.458 60.2 4.9 59 14.8
2007-11-08 15:56:24 51°11.338 2°40.569 59.6 4.9 57 14.7
2007-11-08 15:57:24 51°11.383 2°40.678 61 4.9 59 14.7
2007-11-08 15:58:24 51°11.427 2°40.788 60.5 4.9 59 14.6
2007-11-08 15:59:24 51°11.465 2°40.899 62 4.9 60 14.6
2007-11-08 16:00:24 51°11.507 2°41.01 61.3 5 59 14.6
2007-11-08 16:01:24 51°11.549 2°41.125 62.2 5 57 14.4
2007-11-08 16:02:24 51°11.591 2°41.24 60.9 5.1 61 14.3
2007-11-08 16:03:24 51°11.635 2°41.353 59.6 5 60 14.2
2007-11-08 16:04:24 51°11.678 2°41.464 60.9 5 58 14.1
2007-11-08 16:05:24 51°11.722 2°41.578 59.5 5.1 59 14
2007-11-08 16:06:24 51°11.765 2°41.692 61.3 5 61 13.9
2007-11-08 16:07:24 51°11.807 2°41.806 61.6 5 57 13.6
2007-11-08 16:08:24 51°11.851 2°41.916 59.5 4.9 54 13.5
2007-11-08 16:09:24 51°11.897 2°42.023 56.8 4.9 56 13.6
2007-11-08 16:10:24 51°11.942 2°42.129 57.4 4.9 54 13.4
2007-11-08 16:11:24 51°11.989 2°42.234 55.2 4.8 56 12.8
2007-11-08 16:12:24 51°12.038 2°42.339 54.5 5 54 13
2007-11-08 16:13:24 51°12.119 2°42.499 55.5 10.1 51 12.9
2007-11-08 16:14:24 51°12.235 2°42.735 56.6 12.1 50 12.8
2007-11-08 16:15:24 51°12.347 2°42.997 60.8 12.4 59 12.3
2007-11-08 16:16:24 51°12.458 2°43.26 59.6 12 57 12.1
2007-11-08 16:17:24 51°12.565 2°43.528 60.4 11.9 58 12
2007-11-08 16:18:24 51°12.669 2°43.798 62.7 12.1 57 12.3
2007-11-08 16:19:24 51°12.773 2°44.065 63.9 12.1 58 12.3
2007-11-08 16:20:24 51°12.881 2°44.331 57.8 12 52 11.8
2007-11-08 16:21:24 51°12.995 2°44.586 55.3 11.7 50 11.6
2007-11-08 16:22:24 51°13.116 2°44.834 53.5 11.9 55 11.4
2007-11-08 16:23:24 51°13.238 2°45.08 56.6 11.7 52 11.2
2007-11-08 16:24:24 51°13.362 2°45.327 55.8 12.2 50 11
2007-11-08 16:25:24 51°13.492 2°45.563 52.3 11.7 53 10.1
2007-11-08 16:26:24 51°13.646 2°45.76 39.6 11.9 35 8.9
2007-11-08 16:27:24 51°13.808 2°45.936 38.9 11.7 39 8.1
2007-11-08 16:28:24 51°13.974 2°46.106 38.2 11.7 37 8.3
2007-11-08 16:29:24 51°14.133 2°46.294 47.1 12 47 -999
2007-11-08 16:30:24 51°14.206 2°46.578 82.3 11.8 79 9.4
2007-11-08 16:31:24 51°14.231 2°46.889 84.7 11.6 86 8.5
2007-11-08 16:32:24 51°14.264 2°47.198 82.3 12.4 74 8.6
2007-11-08 16:33:24 51°14.307 2°47.507 80.1 11.9 77 9.6
2007-11-08 16:34:24 51°14.356 2°47.807 80.9 12 74 10.1
2007-11-08 16:35:24 51°14.4 2°48.113 81.5 11.7 83 10.8
2007-11-08 16:36:24 51°14.447 2°48.417 77 11.9 75 11
2007-11-08 16:37:24 51°14.492 2°48.722 79.1 12 76 11.2
2007-11-08 16:38:24 51°14.537 2°49.022 78.7 11.9 71 11.1
2007-11-08 16:39:24 51°14.585 2°49.326 79.4 12 72 11.1
2007-11-08 16:40:24 51°14.634 2°49.629 79.5 11.7 73 11.3
2007-11-08 16:41:24 51°14.682 2°49.931 79.2 11.4 77 11.2
2007-11-08 16:42:25 51°14.729 2°50.237 78.3 11.3 81 11.2
2007-11-08 16:43:24 51°14.778 2°50.534 82.1 11.6 81 10.9
2007-11-08 16:44:24 51°14.803 2°50.841 82.5 11.7 84 10.7
2007-11-08 16:45:24 51°14.829 2°51.153 85.4 11.2 87 10.4
2007-11-08 16:46:24 51°14.854 2°51.462 87 12 82 10.1
2007-11-08 16:47:24 51°14.87 2°51.774 88.7 11.7 84 9.5
2007-11-08 16:48:24 51°14.866 2°52.084 95.9 12.4 91 9.2
2007-11-08 16:49:24 51°14.841 2°52.398 104 11.8 95 9
2007-11-08 16:50:24 51°14.813 2°52.715 100.1 11.8 95 8.7
2007-11-08 16:51:24 51°14.782 2°53.027 102 12 98 8.4
2007-11-08 16:52:24 51°14.738 2°53.339 104.9 12.2 102 8.6
2007-11-08 16:53:24 51°14.696 2°53.649 104.5 12.5 103 9
2007-11-08 16:54:24 51°14.648 2°53.946 111.7 10.9 111 10
2007-11-08 16:55:24 51°14.588 2°54.241 114.1 12.2 110 9.8
2007-11-08 16:56:24 51°14.521 2°54.542 115.2 12.4 112 9.4
2007-11-08 16:57:24 51°14.439 2°54.835 122.9 12.2 121 9.9
2007-11-08 16:58:24 51°14.338 2°55.105 126 11.8 124 9.5
2007-11-08 16:59:24 51°14.21 2°55.338 144.4 11.6 144 10.5
2007-11-08 17:00:27 51°14.063 2°55.463 157.3 8.1 154 9.1
2007-11-08 17:01:28 51°13.942 2°55.547 159.6 7.5 156 9.7
2007-11-08 17:02:28 51°13.817 2°55.641 155.8 8.6 154 -999
2007-11-08 17:03:28 51°13.738 2°55.74 134.8 5.1 131 -999
2007-11-08 17:04:28 51°13.689 2°55.838 124.8 4 123 -999
2007-11-08 17:05:28 51°13.669 2°55.918 107.1 2.6 105 -999
2007-11-08 17:06:28 51°13.664 2°55.952 116.5 0.4 110 -999